Time;durP1;ratioP1;P1;durP2;ratioP2;P2;SDS_P1;SDS_P2;PMS_P1;PMS_P2;Temp;Humidity;BMP_temperature;BMP_pressure;BME280_temperature;BME280_humidity;BME280_pressure;Samples;Min_cycle;Max_cycle;Signal;HPM_P1;HPM_P2
2021/07/10 00:00:37;;;;;;;13.43;12.20;;;15.00;99.90;;;15.76;98.43;98381.66;5187907;28;20215;-78
2021/07/10 00:03:10;;;;;;;13.40;12.30;;;15.00;99.90;;;15.67;97.52;98376.94;5188475;28;20204;-78
2021/07/10 00:05:45;;;;;;;14.60;13.20;;;14.90;99.90;;;15.63;98.01;98375.06;5184579;28;20218;-78
2021/07/10 00:08:18;;;;;;;14.38;12.95;;;14.80;99.90;;;15.57;98.40;98372.22;5192339;28;20189;-78
2021/07/10 00:10:51;;;;;;;14.63;13.35;;;14.80;99.90;;;15.58;98.08;98378.25;5191036;28;20692;-78
2021/07/10 00:13:24;;;;;;;14.27;13.05;;;14.70;99.90;;;15.50;97.62;98373.59;5191961;28;20573;-76
2021/07/10 00:15:58;;;;;;;17.30;13.77;;;14.70;99.90;;;15.47;97.77;98363.16;5187452;28;20214;-79
2021/07/10 00:18:31;;;;;;;14.38;13.18;;;14.70;99.90;;;15.47;97.68;98368.31;5193579;28;20226;-78
2021/07/10 00:21:05;;;;;;;14.98;13.60;;;14.70;99.90;;;15.48;98.03;98361.47;5191291;28;20203;-78
2021/07/10 00:23:38;;;;;;;16.13;13.65;;;14.70;99.90;;;15.48;98.23;98367.53;5192384;28;20202;-78
2021/07/10 00:26:11;;;;;;;15.18;13.48;;;14.70;99.90;;;15.43;98.25;98361.25;5187663;28;20217;-78
2021/07/10 00:28:45;;;;;;;14.25;13.05;;;14.60;99.90;;;15.46;98.83;98355.38;5192197;28;20207;-78
2021/07/10 00:31:18;;;;;;;15.57;14.05;;;14.70;99.90;;;15.42;98.33;98362.06;5193015;28;20222;-78
2021/07/10 00:33:51;;;;;;;14.38;13.07;;;14.60;99.90;;;15.46;98.12;98363.09;5192299;28;20286;-78
2021/07/10 00:36:26;;;;;;;16.92;14.35;;;14.60;99.90;;;15.44;97.96;98355.28;5191078;28;20306;-78
2021/07/10 00:38:59;;;;;;;15.98;14.27;;;14.70;99.90;;;15.30;96.98;98349.50;5192959;28;20194;-78
2021/07/10 00:41:32;;;;;;;15.18;13.23;;;14.60;99.90;;;15.32;98.12;98347.00;5187287;28;20209;-78
2021/07/10 00:44:05;;;;;;;14.38;13.07;;;14.60;99.90;;;15.31;97.76;98348.72;5184865;28;20293;-78
2021/07/10 00:46:39;;;;;;;14.60;13.20;;;14.50;99.90;;;15.33;97.58;98335.88;5187973;28;20238;-79
2021/07/10 00:49:12;;;;;;;59.88;13.40;;;14.50;99.90;;;15.25;97.53;98339.78;5193203;28;20712;-78
2021/07/10 00:51:46;;;;;;;12.60;11.50;;;14.40;99.90;;;15.21;97.88;98338.78;5188169;28;20209;-78
2021/07/10 00:54:20;;;;;;;13.85;12.68;;;14.40;99.90;;;15.24;98.58;98343.19;5185369;28;20200;-78
2021/07/10 00:56:58;;;;;;;19.25;13.05;;;14.50;99.90;;;15.15;98.31;98343.66;5185158;28;20225;-78
2021/07/10 00:59:33;;;;;;;12.75;11.75;;;14.40;99.90;;;15.14;98.54;98340.97;5186745;28;20317;-78
2021/07/10 01:02:06;;;;;;;21.55;12.95;;;14.40;99.90;;;15.04;98.25;98334.53;5192284;28;20591;-78
2021/07/10 01:04:40;;;;;;;13.90;11.13;;;14.20;99.90;;;14.95;98.28;98328.97;5188338;28;20199;-78
2021/07/10 01:07:14;;;;;;;19.80;11.80;;;14.20;99.90;;;14.85;97.74;98323.38;5182610;28;20632;-78
2021/07/10 01:09:47;;;;;;;12.30;11.40;;;14.10;99.90;;;14.83;99.33;98330.13;5187949;28;20204;-78
2021/07/10 01:12:20;;;;;;;16.23;12.77;;;14.20;99.90;;;14.82;99.37;98323.25;5188556;28;20207;-78
2021/07/10 01:14:54;;;;;;;13.70;12.60;;;14.10;99.90;;;14.76;100.00;98322.91;5181768;28;20198;-78
2021/07/10 01:17:27;;;;;;;13.52;12.32;;;14.10;99.90;;;14.80;99.86;98319.69;5191459;28;20286;-78
2021/07/10 01:20:02;;;;;;;13.45;12.43;;;14.10;99.90;;;14.87;100.00;98321.75;5192691;28;20202;-79
2021/07/10 01:22:36;;;;;;;12.88;11.75;;;14.10;99.90;;;14.86;99.08;98314.84;5188477;28;20289;-78
2021/07/10 01:25:12;;;;;;;26.13;11.75;;;14.20;99.90;;;14.82;98.75;98312.94;5189430;28;20711;-78
2021/07/10 01:27:45;;;;;;;13.13;12.05;;;14.10;99.90;;;14.73;98.99;98302.19;5185449;28;20334;-78
2021/07/10 01:30:21;;;;;;;11.98;10.98;;;14.10;99.90;;;14.79;99.33;98297.34;5191487;28;20309;-78
2021/07/10 01:32:57;;;;;;;15.55;10.82;;;14.10;99.90;;;14.76;99.71;98297.19;5191583;28;20218;-78
2021/07/10 01:35:30;;;;;;;10.13;9.32;;;14.10;99.90;;;14.70;98.42;98299.47;5190971;28;20309;-78
2021/07/10 01:38:07;;;;;;;11.48;10.43;;;14.00;99.90;;;14.60;97.58;98299.84;5189131;28;20229;-78
2021/07/10 01:40:40;;;;;;;11.77;10.85;;;13.80;99.90;;;14.63;98.33;98302.56;5190144;28;20195;-78
2021/07/10 01:43:14;;;;;;;12.63;11.43;;;13.90;99.90;;;14.66;98.69;98295.00;5187684;28;20927;-78
2021/07/10 01:45:47;;;;;;;14.80;10.93;;;13.90;99.90;;;14.63;98.80;98294.84;5190919;28;20213;-78
2021/07/10 01:48:21;;;;;;;10.93;9.98;;;13.90;99.90;;;14.60;98.66;98289.56;5190239;28;20728;-78
2021/07/10 01:50:54;;;;;;;10.55;9.75;;;13.90;99.90;;;14.60;98.50;98297.28;5191112;28;20190;-78
2021/07/10 01:53:28;;;;;;;10.98;9.88;;;13.90;99.90;;;14.56;98.46;98290.19;5187957;28;20278;-78
2021/07/10 01:56:01;;;;;;;9.98;9.20;;;13.90;99.90;;;14.52;98.06;98301.16;5187502;28;20649;-78
2021/07/10 01:58:34;;;;;;;11.85;10.85;;;13.80;99.90;;;14.52;98.53;98296.03;5187703;28;20222;-78
2021/07/10 02:01:07;;;;;;;11.52;10.63;;;13.80;99.90;;;14.51;98.56;98295.13;5187395;28;20197;-78
2021/07/10 02:03:40;;;;;;;11.15;10.35;;;13.80;99.90;;;14.54;98.32;98308.16;5190735;28;20194;-78
2021/07/10 02:06:13;;;;;;;11.40;10.50;;;13.80;99.90;;;14.58;98.67;98291.16;5186500;28;20225;-78
2021/07/10 02:08:48;;;;;;;12.70;11.43;;;13.90;99.90;;;14.61;98.67;98291.31;5189906;28;20203;-78
2021/07/10 02:11:21;;;;;;;10.98;10.13;;;13.90;99.90;;;14.59;98.44;98290.34;5187504;28;20362;-78
2021/07/10 02:13:55;;;;;;;12.23;11.07;;;13.80;99.90;;;14.49;97.61;98290.69;5185245;28;20194;-78
2021/07/10 02:16:31;;;;;;;12.73;11.57;;;13.80;99.90;;;14.56;98.27;98279.91;5183940;28;20249;-78
2021/07/10 02:19:04;;;;;;;12.65;11.43;;;13.80;99.90;;;14.49;97.39;98277.84;5183020;28;20214;-79
2021/07/10 02:21:38;;;;;;;18.08;11.52;;;13.70;99.90;;;14.43;97.35;98278.41;5179307;28;20197;-78
2021/07/10 02:24:13;;;;;;;11.88;10.65;;;13.70;99.90;;;14.29;97.42;98272.59;5191583;28;20199;-78
2021/07/10 02:26:46;;;;;;;11.00;10.20;;;13.60;99.90;;;14.29;98.65;98270.03;5180452;28;20225;-78
2021/07/10 02:29:19;;;;;;;12.43;11.43;;;13.60;99.90;;;14.34;98.96;98273.72;5189920;28;20201;-78
2021/07/10 02:31:52;;;;;;;11.98;11.07;;;13.60;99.90;;;14.42;98.54;98271.50;5184249;28;20198;-78
2021/07/10 02:34:25;;;;;;;24.77;11.80;;;13.70;99.90;;;14.43;98.76;98270.72;5190127;28;20275;-78
2021/07/10 02:36:58;;;;;;;43.70;12.63;;;13.80;99.90;;;14.39;99.84;98263.63;5184431;28;20215;-78
2021/07/10 02:39:33;;;;;;;18.75;10.45;;;13.70;99.90;;;14.45;98.81;98257.91;5184012;28;20226;-78
2021/07/10 02:42:06;;;;;;;13.13;11.75;;;13.70;99.90;;;14.41;98.28;98269.75;5187715;28;20193;-78
2021/07/10 02:44:39;;;;;;;12.45;11.27;;;13.60;99.90;;;14.36;98.37;98266.06;5191434;28;20202;-78
2021/07/10 02:47:12;;;;;;;18.90;10.63;;;13.60;99.90;;;14.34;98.84;98260.84;5186202;28;20195;-78
2021/07/10 02:49:45;;;;;;;13.75;10.77;;;13.60;99.90;;;14.33;99.00;98263.34;5194125;28;20201;-78
2021/07/10 02:52:18;;;;;;;12.50;11.50;;;13.60;99.90;;;14.33;99.31;98266.78;5179823;28;20281;-78
2021/07/10 02:54:53;;;;;;;11.43;10.52;;;13.60;99.90;;;14.31;99.24;98255.56;5191189;28;20202;-78
2021/07/10 02:57:26;;;;;;;22.50;12.15;;;13.60;99.90;;;14.28;99.80;98257.06;5184780;28;20204;-78
2021/07/10 03:00:01;;;;;;;12.45;11.35;;;13.60;99.90;;;14.24;99.78;98252.59;5193806;28;20219;-78
2021/07/10 03:02:36;;;;;;;13.13;9.98;;;13.50;99.90;;;14.20;98.66;98249.88;5185719;28;20242;-78
2021/07/10 03:05:10;;;;;;;15.77;10.70;;;13.50;99.90;;;14.14;98.00;98251.28;5190490;28;20225;-78
2021/07/10 03:07:45;;;;;;;42.90;12.23;;;13.30;99.90;;;14.02;98.56;98248.09;5187068;28;20269;-78
2021/07/10 03:10:25;;;;;;;11.70;10.50;;;13.30;99.90;;;13.93;97.93;98245.94;5185749;28;20210;-78
2021/07/10 03:12:59;;;;;;;11.20;10.15;;;13.20;99.90;;;13.88;98.10;98248.31;5190599;28;20266;-77
2021/07/10 03:15:32;;;;;;;16.63;12.98;;;13.10;99.90;;;13.86;99.51;98242.19;5191536;28;20213;-78
2021/07/10 03:18:05;;;;;;;30.95;13.13;;;13.20;99.90;;;13.92;99.41;98237.34;5191322;28;20205;-78
2021/07/10 03:20:38;;;;;;;13.35;12.05;;;13.30;99.90;;;13.95;100.00;98244.34;5186716;28;20199;-77
2021/07/10 03:23:12;;;;;;;35.63;13.13;;;13.30;99.90;;;13.96;99.90;98235.81;5192190;28;20206;-78
2021/07/10 03:25:47;;;;;;;13.30;12.13;;;13.30;99.90;;;13.95;100.00;98241.78;5197169;28;20254;-78
2021/07/10 03:28:20;;;;;;;13.55;12.32;;;13.20;99.90;;;13.86;99.57;98234.47;5192396;28;20254;-78
2021/07/10 03:30:53;;;;;;;13.80;12.45;;;13.20;99.90;;;13.93;99.76;98236.53;5193291;28;20277;-78
2021/07/10 03:33:27;;;;;;;13.02;10.82;;;13.30;99.90;;;13.87;99.62;98240.50;5183332;28;20199;-80
2021/07/10 03:36:00;;;;;;;12.73;11.73;;;13.20;99.90;;;13.83;99.42;98239.47;5190361;28;20242;-78
2021/07/10 03:38:34;;;;;;;13.85;12.15;;;13.10;99.90;;;13.80;99.61;98239.31;5195552;28;20225;-78
2021/07/10 03:41:08;;;;;;;15.07;13.68;;;13.10;99.90;;;13.77;100.00;98239.16;5186911;28;20206;-78
2021/07/10 03:43:41;;;;;;;36.33;13.13;;;13.10;99.90;;;13.82;100.00;98242.84;5194475;28;20224;-78
2021/07/10 03:46:14;;;;;;;32.03;14.10;;;13.20;99.90;;;13.83;99.34;98238.59;5190607;28;20313;-78
2021/07/10 03:48:47;;;;;;;35.90;14.10;;;13.10;99.90;;;13.75;98.92;98235.63;5198072;28;20760;-78
2021/07/10 03:51:24;;;;;;;55.53;15.18;;;13.10;99.90;;;13.71;98.59;98236.28;5187539;28;20210;-78
2021/07/10 03:53:57;;;;;;;21.73;12.90;;;13.00;99.90;;;13.74;98.86;98241.59;5187029;28;20222;-78
2021/07/10 03:56:32;;;;;;;19.60;13.38;;;13.00;99.90;;;13.68;98.52;98233.56;5191295;28;20611;-77
2021/07/10 03:59:05;;;;;;;14.45;13.25;;;13.00;99.90;;;13.70;98.47;98235.38;5194274;28;20213;-79
2021/07/10 04:01:41;;;;;;;12.52;11.52;;;13.00;99.90;;;13.70;99.24;98235.38;5191325;28;20195;-79
2021/07/10 04:04:15;;;;;;;16.30;14.27;;;13.00;99.90;;;13.78;99.67;98229.75;5185185;28;20240;-79
2021/07/10 04:06:48;;;;;;;18.85;13.50;;;13.20;99.90;;;13.75;99.00;98236.50;5191865;28;20294;-78
2021/07/10 04:09:21;;;;;;;14.00;12.80;;;13.10;99.90;;;13.82;99.40;98241.94;5192098;28;20205;-78
2021/07/10 04:11:55;;;;;;;14.57;12.18;;;13.10;99.90;;;13.75;97.84;98243.34;5184791;28;20241;-78
2021/07/10 04:14:29;;;;;;;13.15;12.05;;;13.00;99.90;;;13.77;99.11;98239.16;5186862;28;20194;-78
2021/07/10 04:17:03;;;;;;;22.10;13.25;;;13.10;99.90;;;13.80;98.65;98239.31;5181052;28;20222;-78
2021/07/10 04:19:36;;;;;;;11.85;10.85;;;13.10;99.90;;;13.87;99.18;98228.53;5184547;28;20286;-78
2021/07/10 04:22:09;;;;;;;13.13;12.07;;;13.20;99.90;;;14.01;98.36;98230.91;5190259;28;20218;-78
2021/07/10 04:24:42;;;;;;;13.00;11.95;;;13.20;99.90;;;14.03;98.19;98237.03;5184723;28;20586;-78
2021/07/10 04:27:17;;;;;;;11.43;10.45;;;13.30;99.90;;;14.12;97.60;98237.47;5190342;28;20734;-77
2021/07/10 04:29:50;;;;;;;11.48;10.57;;;13.30;99.90;;;14.21;97.06;98235.34;5176956;28;20198;-78
2021/07/10 04:32:23;;;;;;;10.57;9.77;;;13.40;99.90;;;14.27;96.38;98238.19;5186770;28;20199;-78
2021/07/10 04:34:56;;;;;;;9.82;9.13;;;13.50;99.90;;;14.34;96.85;98237.72;5188516;28;20219;-78
2021/07/10 04:37:30;;;;;;;11.18;10.23;;;13.50;99.90;;;14.39;95.45;98237.91;5185345;28;20216;-78
2021/07/10 04:40:04;;;;;;;10.38;9.57;;;13.50;99.90;;;14.38;95.28;98231.91;5187641;28;20228;-78
2021/07/10 04:42:39;;;;;;;9.32;8.63;;;13.60;99.90;;;14.45;94.64;98248.53;5184494;28;20194;-78
2021/07/10 04:45:14;;;;;;;9.65;8.77;;;13.60;99.90;;;14.51;94.73;98243.66;5176501;28;20225;-78
2021/07/10 04:47:47;;;;;;;8.68;8.07;;;13.60;99.90;;;14.52;94.88;98235.16;5187852;28;20257;-78
2021/07/10 04:50:21;;;;;;;8.98;8.25;;;13.70;99.90;;;14.59;94.15;98226.94;5177882;28;20195;-77
2021/07/10 04:52:54;;;;;;;9.00;8.40;;;13.80;99.90;;;14.68;93.93;98221.34;5189605;28;20233;-77
2021/07/10 04:55:27;;;;;;;9.77;9.07;;;13.80;99.90;;;14.77;93.39;98229.47;5187738;28;20325;-77
2021/07/10 04:58:02;;;;;;;9.52;8.73;;;13.90;99.90;;;14.99;92.80;98233.91;5188645;28;20290;-77
2021/07/10 05:00:35;;;;;;;9.10;8.40;;;14.10;99.90;;;15.16;92.10;98238.94;5176985;28;20218;-77
2021/07/10 05:03:08;;;;;;;9.65;8.82;;;14.20;99.90;;;15.26;90.12;98239.44;5184671;28;20195;-77
2021/07/10 05:05:41;;;;;;;8.52;7.95;;;14.30;99.90;;;15.35;89.66;98232.94;5186636;28;20222;-77
2021/07/10 05:08:14;;;;;;;9.30;8.60;;;14.30;99.90;;;15.52;89.74;98232.84;5186378;28;20195;-77
2021/07/10 05:10:47;;;;;;;9.52;8.82;;;14.50;99.90;;;15.84;88.28;98232.50;5178962;28;20266;-78
2021/07/10 05:13:22;;;;;;;9.00;8.20;;;14.80;99.90;;;16.42;85.19;98240.06;5185248;28;20258;-77
2021/07/10 05:15:55;;;;;;;8.27;7.57;;;15.20;99.90;;;16.94;82.42;98233.50;5189133;28;20280;-79
2021/07/10 05:18:28;;;;;;;8.20;7.70;;;15.70;99.90;;;17.53;79.74;98233.13;5186129;28;20222;-79
2021/07/10 05:21:01;;;;;;;7.32;6.75;;;16.20;99.90;;;17.99;76.70;98223.53;5184668;28;20224;-79
2021/07/10 05:23:34;;;;;;;7.80;7.20;;;16.50;99.90;;;18.32;74.09;98218.59;5187096;28;20277;-78
2021/07/10 05:26:09;;;;;;;7.97;7.15;;;16.70;99.90;;;18.60;73.47;98216.88;5183612;28;20669;-78
2021/07/10 05:28:43;;;;;;;7.47;6.93;;;17.00;99.90;;;18.88;71.94;98222.09;5187723;28;20276;-78
2021/07/10 05:31:16;;;;;;;6.97;6.47;;;17.20;99.90;;;19.05;71.76;98217.41;5188434;28;20273;-79
2021/07/10 05:33:51;;;;;;;6.95;6.45;;;17.40;99.90;;;19.23;71.05;98226.56;5188079;28;20666;-80
2021/07/10 05:36:24;;;;;;;7.40;6.80;;;17.60;99.90;;;19.19;69.89;98220.41;5178776;28;20223;-78
2021/07/10 05:38:57;;;;;;;6.78;6.10;;;17.50;99.90;;;19.73;69.28;98228.00;5187519;28;20290;-78
2021/07/10 05:41:30;;;;;;;7.28;6.57;;;17.70;99.90;;;20.19;67.13;98221.41;5181500;28;20251;-79
2021/07/10 05:44:05;;;;;;;6.68;6.18;;;18.10;99.90;;;20.53;66.70;98213.59;5184235;28;20199;-79
2021/07/10 05:46:38;;;;;;;6.45;5.95;;;18.40;99.90;;;20.76;64.47;98209.78;5186628;28;20222;-78
2021/07/10 05:49:11;;;;;;;6.47;5.97;;;18.60;99.90;;;20.98;64.45;98207.69;5188654;28;20293;-78
2021/07/10 05:51:44;;;;;;;6.40;5.85;;;18.70;99.90;;;21.13;63.80;98218.38;5189094;28;20265;-80
2021/07/10 05:54:17;;;;;;;6.45;5.95;;;18.70;99.90;;;21.23;63.69;98212.56;5186748;28;20194;-79
2021/07/10 05:56:50;;;;;;;6.38;5.88;;;18.80;99.90;;;21.39;62.88;98216.34;5185400;28;20227;-78
2021/07/10 05:59:25;;;;;;;6.20;5.70;;;19.00;99.90;;;21.36;62.83;98214.56;5181888;28;20877;-78
2021/07/10 06:01:58;;;;;;;6.50;5.97;;;19.00;99.90;;;21.67;62.03;98212.56;5184044;28;20205;-78
2021/07/10 06:04:31;;;;;;;6.05;5.65;;;19.20;99.90;;;21.90;61.83;98207.78;5186569;28;20202;-77
2021/07/10 06:07:06;;;;;;;7.13;6.53;;;19.50;99.90;;;22.17;60.23;98198.69;5186030;28;20222;-79
2021/07/10 06:09:40;;;;;;;6.03;5.47;;;19.70;99.90;;;22.37;59.92;98199.03;5186882;28;20194;-78
2021/07/10 06:12:13;;;;;;;7.45;5.97;;;19.90;99.90;;;22.34;57.88;98197.25;5186791;28;20190;-78
2021/07/10 06:14:47;;;;;;;5.85;5.45;;;20.00;99.90;;;22.55;58.90;98193.22;5186322;28;20213;-77
2021/07/10 06:17:21;;;;;;;6.20;5.50;;;19.80;99.90;;;22.82;57.98;98201.44;5178862;28;20207;-78
2021/07/10 06:19:55;;;;;;;5.82;5.22;;;20.10;99.90;;;23.22;56.69;98207.22;5180013;28;20248;-78
2021/07/10 06:22:28;;;;;;;5.22;4.82;;;20.40;99.90;;;23.52;56.59;98198.00;5181199;28;20202;-78
2021/07/10 06:25:01;;;;;;;5.28;4.88;;;20.50;99.90;;;23.44;56.38;98212.72;5178824;28;20222;-78
2021/07/10 06:27:34;;;;;;;5.03;4.70;;;20.60;99.90;;;23.75;55.76;98203.50;5181532;28;20629;-78
2021/07/10 06:30:12;;;;;;;5.82;5.25;;;20.80;99.90;;;24.14;53.91;98203.00;5180224;28;20702;-78
2021/07/10 06:32:46;;;;;;;5.72;5.25;;;21.10;99.90;;;24.61;53.38;98207.78;5186580;28;20202;-78
2021/07/10 06:35:19;;;;;;;5.20;4.70;;;21.40;99.90;;;24.85;52.53;98193.09;5186873;28;20225;-78
2021/07/10 06:37:52;;;;;;;5.57;5.10;;;21.70;99.90;;;25.19;51.65;98196.78;5178213;28;20225;-78
2021/07/10 06:40:26;;;;;;;5.10;4.63;;;22.10;99.90;;;25.10;52.40;98194.97;5182245;28;20202;-78
2021/07/10 06:42:59;;;;;;;5.65;5.20;;;22.40;99.90;;;25.66;51.45;98187.34;5179617;28;20653;-77
2021/07/10 06:45:33;;;;;;;5.15;4.75;;;22.60;99.90;;;25.83;51.07;98188.28;5187458;28;20221;-78
2021/07/10 06:48:08;;;;;;;5.72;5.20;;;22.70;99.90;;;25.94;51.14;98194.41;5186906;28;20240;-78
2021/07/10 06:50:41;;;;;;;5.03;4.55;;;23.00;99.90;;;26.56;49.58;98191.81;5185803;28;20257;-78
2021/07/10 06:53:19;;;;;;;5.15;4.75;;;23.20;99.90;;;26.84;48.37;98190.00;5178336;28;20198;-78
2021/07/10 06:55:53;;;;;;;4.80;4.40;;;23.50;99.90;;;27.02;49.06;98186.47;5174715;28;20222;-80
2021/07/10 06:58:26;;;;;;;4.88;4.57;;;23.60;99.90;;;27.20;48.34;98189.03;5183487;28;20221;-79
2021/07/10 07:01:01;;;;;;;6.05;5.15;;;23.80;99.90;;;27.11;48.25;98192.53;5176269;28;20588;-79
2021/07/10 07:03:34;;;;;;;6.03;5.63;;;24.10;99.90;;;27.17;47.55;98184.69;5170712;28;20248;-79
2021/07/10 07:06:07;;;;;;;4.85;4.55;;;24.30;99.90;;;27.28;47.62;98173.28;5179827;28;20562;-78
2021/07/10 07:08:40;;;;;;;5.32;4.85;;;24.50;99.90;;;27.62;47.53;98179.22;5178374;28;20306;-78
2021/07/10 07:11:13;;;;;;;5.10;4.70;;;24.80;99.90;;;28.06;47.12;98170.19;5174724;28;20322;-78
2021/07/10 07:13:46;;;;;;;5.88;5.43;;;25.00;99.90;;;28.24;46.21;98169.16;5184837;28;20198;-78
2021/07/10 07:16:21;;;;;;;5.97;5.43;;;25.20;99.90;;;28.04;46.17;98166.69;5181147;28;20250;-78
2021/07/10 07:18:54;;;;;;;5.75;5.25;;;25.30;99.90;;;28.17;46.17;98167.47;5175110;28;20217;-78
2021/07/10 07:21:27;;;;;;;5.85;5.28;;;25.40;99.90;;;28.13;46.35;98161.38;5182515;28;20534;-79
2021/07/10 07:24:00;;;;;;;5.80;5.30;;;25.70;99.90;;;28.18;46.89;98162.19;5189952;28;20293;-79
2021/07/10 07:26:34;;;;;;;6.07;5.63;;;25.70;99.90;;;28.38;46.73;98155.88;5190922;28;20304;-80
2021/07/10 07:29:07;;;;;;;6.10;5.63;;;25.90;99.90;;;28.62;45.44;98155.69;5190808;28;20192;-79
2021/07/10 07:31:41;;;;;;;5.78;5.28;;;26.10;99.90;;;28.76;46.19;98152.91;5194200;28;20214;-80
2021/07/10 07:34:14;;;;;;;5.80;5.30;;;26.20;99.90;;;28.89;46.29;98157.13;5198563;28;20198;-79
2021/07/10 07:36:48;;;;;;;6.32;5.82;;;26.30;99.90;;;28.73;44.99;98159.06;5198594;28;20316;-79
2021/07/10 07:39:22;;;;;;;6.47;5.15;;;26.60;99.90;;;29.10;44.78;98153.44;5195484;28;20232;-80
2021/07/10 07:41:55;;;;;;;6.30;5.70;;;26.60;99.90;;;29.17;43.92;98154.22;5191325;28;20653;-80
2021/07/10 07:44:28;;;;;;;6.28;5.70;;;26.80;99.40;;;29.51;43.27;98149.34;5196191;28;20194;-79
2021/07/10 07:47:02;;;;;;;6.35;5.85;;;26.70;99.80;;;29.33;43.26;98149.59;5193683;28;20216;-79
2021/07/10 07:49:36;;;;;;;5.90;5.45;;;26.70;99.20;;;29.32;43.30;98142.59;5188242;28;20273;-79
2021/07/10 07:52:09;;;;;;;5.18;4.80;;;26.60;99.70;;;29.88;42.08;98127.75;5195090;28;20216;-80
2021/07/10 07:54:42;;;;;;;5.70;5.30;;;26.90;99.00;;;29.98;42.02;98133.75;5187611;28;20206;-80
2021/07/10 07:57:15;;;;;;;5.13;4.82;;;27.00;98.80;;;30.18;41.08;98146.59;5192757;28;20597;-79
2021/07/10 07:59:48;;;;;;;5.07;4.78;;;27.20;98.10;;;30.21;40.17;98141.25;5196022;28;20273;-80
2021/07/10 08:02:23;;;;;;;4.43;4.13;;;27.20;97.10;;;30.26;39.75;98135.06;5194947;28;20210;-79
2021/07/10 08:04:56;;;;;;;4.60;4.20;;;27.30;97.00;;;30.50;38.62;98133.75;5193996;28;20228;-79
2021/07/10 08:07:30;;;;;;;4.72;4.43;;;27.50;95.90;;;30.87;38.47;98126.91;5193078;28;20689;-79
2021/07/10 08:10:11;;;;;;;5.32;4.93;;;27.70;96.20;;;30.74;37.44;98129.78;5185113;28;20204;-81
2021/07/10 08:12:49;;;;;;;5.63;4.97;;;27.60;94.60;;;30.85;38.08;98129.59;5189822;28;20252;-80
2021/07/10 08:15:25;;;;;;;4.50;4.20;;;27.50;95.70;;;31.01;38.32;98130.13;5189907;28;20214;-80
2021/07/10 08:17:59;;;;;;;4.72;4.25;;;27.70;96.10;;;31.39;38.38;98124.09;5187359;28;20194;-80
2021/07/10 08:20:33;;;;;;;4.60;4.30;;;27.80;96.60;;;31.30;38.54;98124.22;5196989;28;20197;-80
2021/07/10 08:23:07;;;;;;;4.70;4.30;;;27.90;96.30;;;30.88;39.38;98126.03;5197340;28;20206;-80
2021/07/10 08:25:42;;;;;;;4.38;4.07;;;27.90;96.60;;;30.60;40.33;98118.59;5185815;28;20281;-80
2021/07/10 08:28:15;;;;;;;4.55;4.05;;;28.00;96.20;;;30.39;39.44;98111.06;5183716;28;20199;-79
2021/07/10 08:30:48;;;;;;;4.72;4.40;;;28.00;95.00;;;29.68;40.68;98111.38;5192331;28;20233;-80
2021/07/10 08:33:23;;;;;;;4.32;4.03;;;27.40;95.90;;;29.16;41.48;98111.22;5192019;28;20280;-81
2021/07/10 08:35:56;;;;;;;4.72;4.32;;;27.20;95.60;;;29.24;42.22;98107.59;5191896;28;20268;-83
2021/07/10 08:38:29;;;;;;;5.10;4.70;;;27.30;95.90;;;29.26;41.47;98104.03;5189703;28;20681;-81
2021/07/10 08:41:03;;;;;;;7.95;5.63;;;27.30;95.90;;;29.37;42.91;98098.63;5189890;28;20206;-82
2021/07/10 08:43:37;;;;;;;6.65;4.85;;;27.60;96.30;;;29.34;42.45;98098.69;5189048;28;20200;-82
2021/07/10 08:46:13;;;;;;;4.50;4.20;;;27.50;96.00;;;29.06;39.99;98093.78;5184317;28;20232;-81
2021/07/10 08:48:48;;;;;;;4.60;4.07;;;27.50;93.60;;;28.94;42.07;98091.28;5187592;28;20225;-81
2021/07/10 08:51:21;;;;;;;4.60;4.20;;;27.60;95.00;;;28.84;43.17;98087.00;5185143;28;20210;-80
2021/07/10 08:53:55;;;;;;;4.55;4.13;;;27.50;95.40;;;28.88;43.22;98083.47;5189233;28;20205;-81
2021/07/10 08:56:28;;;;;;;8.43;5.82;;;27.60;95.20;;;28.79;43.51;98086.19;5186305;28;20316;-81
2021/07/10 08:59:01;;;;;;;5.53;4.72;;;27.40;96.20;;;28.46;43.58;98083.94;5187208;28;20197;-82
2021/07/10 09:01:35;;;;;;;4.97;4.57;;;27.20;95.00;;;28.56;44.04;98089.09;5185577;28;20217;-82
2021/07/10 09:04:09;;;;;;;4.40;4.10;;;27.20;95.80;;;28.74;44.15;98091.53;5187127;28;20268;-82
2021/07/10 09:06:42;;;;;;;5.13;4.80;;;27.20;96.10;;;28.67;42.22;98090.75;5187956;28;20634;-80
2021/07/10 09:09:15;;;;;;;5.00;4.65;;;27.30;94.80;;;28.59;42.50;98089.06;5187481;28;20202;-81
2021/07/10 09:12:01;;;;;;;5.03;4.63;;;27.40;94.60;;;27.99;43.91;98094.91;5188596;28;20301;-81
2021/07/10 09:14:35;;;;;;;5.20;4.82;;;26.90;95.30;;;27.85;43.27;98090.63;5185905;28;20217;-80
2021/07/10 09:17:16;;;;;;;4.70;4.32;;;26.50;94.70;;;28.18;45.37;98087.72;5185337;28;20284;-81
2021/07/10 09:19:54;;;;;;;5.05;4.65;;;26.90;97.20;;;28.30;45.61;98082.31;5187031;28;20645;-80
2021/07/10 09:22:28;;;;;;;5.22;4.82;;;27.00;96.50;;;27.96;43.32;98084.44;5185983;28;20265;-82
2021/07/10 09:25:01;;;;;;;4.38;4.07;;;26.60;95.20;;;27.48;44.27;98074.25;5184825;28;20826;-80
2021/07/10 09:27:49;;;;;;;5.13;4.80;;;26.30;95.50;;;27.77;44.85;98084.53;5188261;28;20202;-81
2021/07/10 09:30:34;;;;;;;5.00;4.70;;;26.60;96.30;;;27.61;44.47;98075.00;5186160;28;20218;-81
2021/07/10 09:33:16;;;;;;;4.88;4.47;;;26.60;95.70;;;27.33;45.13;98071.75;5187613;28;20217;-81
2021/07/10 09:35:58;;;;;;;4.80;4.40;;;26.30;95.70;;;27.39;45.84;98069.94;5186512;28;20217;-78
2021/07/10 09:38:34;;;;;;;4.93;4.63;;;26.40;96.10;;;27.55;44.71;98077.69;5188194;28;20572;-80
2021/07/10 09:41:10;;;;;;;4.70;4.40;;;26.60;95.50;;;27.18;46.26;98070.03;5188014;28;20229;-80
2021/07/10 09:43:43;;;;;;;5.35;4.97;;;26.20;96.50;;;27.08;46.38;98069.22;5180578;28;20265;-80
2021/07/10 09:46:27;;;;;;;4.72;4.43;;;25.90;96.60;;;26.44;47.03;98072.94;5183404;28;20215;-81
2021/07/10 09:49:22;;;;;;;4.50;4.30;;;25.30;97.30;;;26.42;48.22;98068.59;5185530;28;20289;-80
2021/07/10 09:52:06;;;;;;;5.10;4.80;;;25.30;97.80;;;26.43;46.42;98072.94;5185586;28;20277;-83
2021/07/10 09:54:42;;;;;;;4.78;4.45;;;25.10;96.80;;;26.26;48.03;98057.25;5189264;28;20277;-83
2021/07/10 09:57:18;;;;;;;4.93;4.57;;;24.90;98.30;;;26.19;50.33;98059.03;5189931;28;20204;-83
2021/07/10 09:59:54;;;;;;;5.03;4.63;;;24.90;99.80;;;26.15;48.91;98057.25;5185204;28;20219;-82
2021/07/10 10:02:31;;;;;;;4.82;4.53;;;25.10;98.00;;;26.32;48.16;98054.59;5184045;28;20269;-82
2021/07/10 10:05:10;;;;;;;4.75;4.35;;;25.20;98.00;;;26.72;45.01;98051.88;5182735;28;20219;-81
2021/07/10 10:07:47;;;;;;;4.40;4.10;;;25.70;95.60;;;26.83;45.11;98043.97;5185589;28;20217;-81
2021/07/10 10:10:26;;;;;;;4.50;4.20;;;26.10;95.30;;;27.13;45.96;98035.06;5189160;28;20204;-81
2021/07/10 10:13:13;;;;;;;4.20;3.85;;;26.40;95.90;;;27.52;44.99;98035.69;5187428;28;20244;-82
2021/07/10 10:15:48;;;;;;;4.20;3.92;;;26.60;95.20;;;27.76;44.05;98032.88;5186378;28;20214;-81
2021/07/10 10:18:24;;;;;;;4.35;4.05;;;26.80;95.20;;;27.59;43.42;98037.41;5185383;28;20206;-83
2021/07/10 10:20:57;;;;;;;4.57;4.28;;;26.80;93.90;;;27.66;42.45;98025.09;5176474;28;20281;-82
2021/07/10 10:23:32;;;;;;;4.28;3.97;;;26.80;93.60;;;27.55;42.52;98035.66;5186165;28;20541;-80
2021/07/10 10:26:05;;;;;;;4.22;4.03;;;26.50;93.60;;;27.62;43.01;98026.88;5185552;28;20720;-81
2021/07/10 10:28:39;;;;;;;3.97;3.67;;;26.70;93.70;;;27.77;42.66;98029.34;5184606;28;20544;-81
2021/07/10 10:31:12;;;;;;;4.50;4.00;;;26.90;93.40;;;27.74;42.58;98029.38;5185508;28;20198;-81
2021/07/10 10:33:46;;;;;;;4.13;3.78;;;26.90;93.10;;;27.87;41.89;98026.66;5182843;28;20218;-80
2021/07/10 10:36:23;;;;;;;3.95;3.72;;;26.90;93.00;;;27.96;41.73;98032.72;5183629;28;20239;-81
2021/07/10 10:38:57;;;;;;;3.80;3.55;;;27.20;92.30;;;27.82;41.23;98024.09;5187259;28;20220;-84
2021/07/10 10:41:31;;;;;;;3.60;3.30;;;26.90;92.20;;;27.66;41.42;98012.81;5185606;28;20205;-81